createdAt,value
2022-08-17T00:02:26.399Z,99501.06
2022-08-17T00:04:55.077Z,99505.47
2022-08-17T00:07:23.071Z,99507.09
2022-08-17T00:09:50.781Z,99509.81
2022-08-17T00:12:41.694Z,99508.19
2022-08-17T00:15:10.652Z,99506.00
2022-08-17T00:17:38.990Z,99504.34
2022-08-17T00:20:07.487Z,99510.88
2022-08-17T00:22:36.629Z,99513.91
2022-08-17T00:25:07.194Z,99514.75
2022-08-17T00:27:36.850Z,99502.22
2022-08-17T00:30:07.968Z,99503.59
2022-08-17T00:33:23.465Z,99510.19
2022-08-17T00:35:28.602Z,99495.75
2022-08-17T00:37:56.330Z,99503.38
2022-08-17T00:40:24.746Z,99499.03
2022-08-17T00:42:54.175Z,99499.59
2022-08-17T00:45:23.082Z,99499.28
2022-08-17T00:47:50.661Z,99492.47
2022-08-17T00:50:20.578Z,99498.47
2022-08-17T00:52:55.935Z,99496.03
2022-08-17T00:55:25.294Z,99497.09
2022-08-17T00:57:58.374Z,99503.09
2022-08-17T01:00:28.898Z,99499.59
2022-08-17T01:02:59.879Z,99499.00
2022-08-17T01:05:31.831Z,99497.94
2022-08-17T01:08:01.217Z,99488.97
2022-08-17T01:10:58.625Z,99488.69
2022-08-17T01:13:24.502Z,99492.78
2022-08-17T01:15:57.740Z,99499.03
2022-08-17T01:18:27.145Z,99497.69
2022-08-17T01:20:57.518Z,99495.50
2022-08-17T01:23:27.494Z,99499.06
2022-08-17T01:25:58.458Z,99493.63
2022-08-17T01:28:53.040Z,99495.53
2022-08-17T01:31:16.098Z,99506.41
2022-08-17T01:33:43.790Z,99508.84
2022-08-17T01:36:11.561Z,99516.22
2022-08-17T01:38:41.336Z,99510.25
2022-08-17T01:41:12.215Z,99506.16
2022-08-17T01:43:45.005Z,99512.44
2022-08-17T01:46:16.652Z,99514.63
2022-08-17T01:48:47.384Z,99507.78
2022-08-17T01:51:16.440Z,99514.34
2022-08-17T01:53:51.564Z,99513.53
2022-08-17T01:56:23.021Z,99509.16
2022-08-17T01:58:50.601Z,99498.00
2022-08-17T02:01:20.236Z,99500.75
2022-08-17T02:03:56.113Z,99501.25
2022-08-17T02:06:28.931Z,99488.75
2022-08-17T02:09:03.111Z,99486.56
2022-08-17T02:11:33.206Z,99489.53
2022-08-17T02:14:03.176Z,99489.81
2022-08-17T02:16:37.677Z,99488.75
2022-08-17T02:19:08.351Z,99490.94
2022-08-17T02:21:36.985Z,99478.94
2022-08-17T02:24:09.244Z,99484.38
2022-08-17T02:26:37.064Z,99484.09
2022-08-17T02:29:05.075Z,99485.72
2022-08-17T02:31:33.170Z,99492.03
2022-08-17T02:34:04.554Z,99484.66
2022-08-17T02:36:33.748Z,99484.09
2022-08-17T02:39:01.951Z,99488.72
2022-08-17T02:41:31.223Z,99485.47
2022-08-17T02:43:58.867Z,99488.72
2022-08-17T02:46:26.651Z,99487.66
2022-08-17T02:48:54.297Z,99487.66
2022-08-17T02:51:21.905Z,99494.72
2022-08-17T02:53:49.585Z,99491.16
2022-08-17T02:56:17.300Z,99489.25
2022-08-17T02:58:46.360Z,99478.91
2022-08-17T03:01:14.297Z,99492.00
2022-08-17T03:03:42.318Z,99490.34
2022-08-17T03:06:10.640Z,99491.72
2022-08-17T03:08:38.510Z,99501.81
2022-08-17T03:11:06.227Z,99499.88
2022-08-17T03:13:34.039Z,99505.31
2022-08-17T03:16:04.112Z,99511.59
2022-08-17T03:18:31.884Z,99505.31
2022-08-17T03:21:01.727Z,99509.13
2022-08-17T03:23:30.288Z,99501.25
2022-08-17T03:25:58.302Z,99506.16
2022-08-17T03:28:27.752Z,99503.44
2022-08-17T03:30:55.419Z,99502.31
2022-08-17T03:33:24.413Z,99501.50
2022-08-17T03:35:52.173Z,99503.13
2022-08-17T03:38:19.920Z,99503.13
2022-08-17T03:40:56.879Z,99506.13
2022-08-17T03:43:28.399Z,99498.81
2022-08-17T03:46:28.042Z,99499.06
2022-08-17T03:49:19.260Z,99503.97
2022-08-17T03:52:04.421Z,99502.31
2022-08-17T03:54:49.701Z,99497.16
2022-08-17T03:57:17.296Z,99500.69
2022-08-17T03:59:45.287Z,99501.81
2022-08-17T04:02:18.729Z,99503.97
2022-08-17T04:04:50.596Z,99501.81
2022-08-17T04:07:18.430Z,99503.72
2022-08-17T04:09:46.048Z,99492.53
2022-08-17T04:12:16.425Z,99493.34
2022-08-17T04:14:52.626Z,99489.00
2022-08-17T04:17:23.279Z,99481.66
2022-08-17T04:19:52.553Z,99483.03
2022-08-17T04:22:32.789Z,99480.84
2022-08-17T04:25:07.974Z,99484.91
2022-08-17T04:27:35.804Z,99488.97
2022-08-17T04:30:03.605Z,99493.91
2022-08-17T04:32:59.337Z,99494.44
2022-08-17T04:35:22.120Z,99496.84
2022-08-17T04:37:49.894Z,99494.41
2022-08-17T04:40:36.430Z,99488.19
2022-08-17T04:43:07.063Z,99500.44
2022-08-17T04:45:34.955Z,99496.88
2022-08-17T04:48:02.827Z,99499.63
2022-08-17T04:50:31.888Z,99503.16
2022-08-17T04:52:59.824Z,99505.34
2022-08-17T04:55:27.602Z,99514.31
2022-08-17T04:57:55.445Z,99518.41
2022-08-17T05:00:25.702Z,99506.16
2022-08-17T05:02:55.057Z,99516.50
2022-08-17T05:05:24.544Z,99512.13
2022-08-17T05:07:54.462Z,99518.41
2022-08-17T05:10:22.510Z,99514.31
2022-08-17T05:12:58.582Z,99514.31
2022-08-17T05:15:26.513Z,99515.69
2022-08-17T05:17:54.497Z,99515.72
2022-08-17T05:20:23.085Z,99521.97
2022-08-17T05:22:54.599Z,99519.50
2022-08-17T05:25:24.995Z,99515.97
2022-08-17T05:27:54.160Z,99520.50
2022-08-17T05:30:22.631Z,99533.84
2022-08-17T05:32:55.327Z,99521.75
2022-08-17T05:35:23.959Z,99529.19
2022-08-17T05:37:53.699Z,99523.19
2022-08-17T05:40:25.958Z,99535.50
2022-08-17T05:43:04.171Z,99531.88
2022-08-17T05:45:55.362Z,99534.91
2022-08-17T05:48:20.972Z,99533.88
2022-08-17T05:51:13.371Z,99528.97
2022-08-17T05:53:54.887Z,99521.44
2022-08-17T05:56:33.778Z,99515.06
2022-08-17T05:59:09.554Z,99518.56
2022-08-17T06:01:49.706Z,99528.16
2022-08-17T06:04:27.756Z,99525.44
2022-08-17T06:07:02.816Z,99512.69
2022-08-17T06:09:40.478Z,99498.72
2022-08-17T06:12:26.232Z,99506.66
2022-08-17T06:15:19.408Z,99506.38
2022-08-17T06:17:47.633Z,99502.94
2022-08-17T06:20:17.108Z,99508.25
2022-08-17T06:22:50.444Z,99495.56
2022-08-17T06:25:24.403Z,99510.06
2022-08-17T06:27:57.073Z,99508.41
2022-08-17T06:30:27.596Z,99516.88
2022-08-17T06:33:05.705Z,99505.50
2022-08-17T06:35:43.780Z,99502.94
2022-08-17T06:38:37.178Z,99502.28
2022-08-17T06:41:16.602Z,99499.97
2022-08-17T06:43:56.639Z,99506.22
2022-08-17T06:46:35.786Z,99504.59
2022-08-17T06:49:14.818Z,99511.53
2022-08-17T06:51:46.401Z,99519.56
2022-08-17T06:54:18.876Z,99530.28
2022-08-17T06:56:55.206Z,99540.56
2022-08-17T06:59:55.000Z,99543.63
2022-08-17T07:02:52.363Z,99546.84
2022-08-17T07:05:24.780Z,99552.94
2022-08-17T07:08:04.309Z,99553.34
2022-08-17T07:10:45.530Z,99547.28
2022-08-17T07:13:51.099Z,99543.69
2022-08-17T07:16:24.790Z,99548.41
2022-08-17T07:18:54.798Z,99549.34
2022-08-17T07:21:41.217Z,99542.25
2022-08-17T07:24:29.701Z,99536.31
2022-08-17T07:27:13.602Z,99532.44
2022-08-17T07:29:47.647Z,99538.59
2022-08-17T07:32:19.032Z,99523.75
2022-08-17T07:35:15.224Z,99519.53
2022-08-17T07:37:46.760Z,99508.63
2022-08-17T07:40:27.904Z,99509.91
2022-08-17T07:43:07.667Z,99510.06
2022-08-17T07:46:12.226Z,99528.19
2022-08-17T07:48:43.046Z,99539.50
2022-08-17T07:51:20.200Z,99540.47
2022-08-17T07:53:48.234Z,99543.34
2022-08-17T07:56:36.176Z,99543.25
2022-08-17T07:59:18.361Z,99554.13
2022-08-17T08:02:08.071Z,99558.06
2022-08-17T08:04:59.781Z,99567.84
2022-08-17T08:07:34.739Z,99576.84
2022-08-17T08:10:09.035Z,99557.00
2022-08-17T08:12:39.426Z,99561.66
2022-08-17T08:15:18.625Z,99566.44
2022-08-17T08:17:51.805Z,99563.38
2022-08-17T08:20:34.982Z,99556.16
2022-08-17T08:23:20.995Z,99546.13
2022-08-17T08:25:59.447Z,99531.56
2022-08-17T08:28:34.918Z,99535.38
2022-08-17T08:31:08.071Z,99535.06
2022-08-17T08:33:49.837Z,99549.31
2022-08-17T08:37:14.260Z,99559.38
2022-08-17T08:39:33.916Z,99570.72
2022-08-17T08:42:12.561Z,99582.69
2022-08-17T08:44:59.737Z,99583.13
2022-08-17T08:47:48.413Z,99580.78
2022-08-17T08:50:37.808Z,99581.03
2022-08-17T08:53:28.540Z,99596.09
2022-08-17T08:56:04.518Z,99597.09
2022-08-17T08:58:42.612Z,99601.59
2022-08-17T09:01:19.286Z,99596.47
2022-08-17T09:04:21.385Z,99596.38
2022-08-17T09:07:05.377Z,99598.66
2022-08-17T09:09:44.105Z,99608.06
2022-08-17T09:12:21.218Z,99608.91
2022-08-17T09:15:01.230Z,99608.75
2022-08-17T09:17:40.060Z,99606.16
2022-08-17T09:20:27.338Z,99606.13
2022-08-17T09:23:03.992Z,99616.31
2022-08-17T09:25:36.067Z,99614.97
2022-08-17T09:28:07.670Z,99616.09
2022-08-17T09:30:42.155Z,99604.00
2022-08-17T09:33:12.518Z,99606.84
2022-08-17T09:35:45.351Z,99598.78
2022-08-17T09:38:23.432Z,99595.34
2022-08-17T09:40:56.609Z,99596.00
2022-08-17T09:43:35.216Z,99598.16
2022-08-17T09:46:08.913Z,99599.94
2022-08-17T09:48:41.552Z,99605.56
2022-08-17T09:51:14.487Z,99602.44
2022-08-17T09:53:44.827Z,99600.59
2022-08-17T09:56:35.823Z,99592.66
2022-08-17T09:59:18.166Z,99599.28
2022-08-17T10:01:52.683Z,99599.91
2022-08-17T10:04:33.201Z,99592.97
2022-08-17T10:07:08.065Z,99604.38
2022-08-17T10:09:49.540Z,99599.19
2022-08-17T10:12:30.232Z,99597.53
2022-08-17T10:15:13.402Z,99597.38
2022-08-17T10:17:53.962Z,99598.19
2022-08-17T10:20:26.871Z,99606.75
2022-08-17T10:23:17.663Z,99606.78
2022-08-17T10:26:08.873Z,99604.88
2022-08-17T10:28:43.513Z,99607.09
2022-08-17T10:31:34.212Z,99605.50
2022-08-17T10:34:19.872Z,99610.34
2022-08-17T10:36:55.247Z,99605.34
2022-08-17T10:39:31.926Z,99612.75
2022-08-17T10:42:16.336Z,99607.44
2022-08-17T10:45:06.356Z,99615.19
2022-08-17T10:48:04.689Z,99609.72
2022-08-17T10:50:50.312Z,99599.22
2022-08-17T10:53:53.100Z,99600.63
2022-08-17T10:56:40.299Z,99614.09
2022-08-17T10:59:09.828Z,99618.47
2022-08-17T11:01:58.286Z,99622.13
2022-08-17T11:04:43.112Z,99620.59
2022-08-17T11:07:18.797Z,99626.09
2022-08-17T11:10:06.876Z,99619.16
2022-08-17T11:12:42.356Z,99617.66
2022-08-17T11:15:26.790Z,99620.25
2022-08-17T11:18:37.182Z,99631.03
2022-08-17T11:21:18.446Z,99635.75
2022-08-17T11:24:03.759Z,99635.56
2022-08-17T11:26:34.490Z,99630.81
2022-08-17T11:29:05.134Z,99633.13
2022-08-17T11:31:39.879Z,99634.13
2022-08-17T11:34:15.089Z,99647.81
2022-08-17T11:37:05.117Z,99643.94
2022-08-17T11:39:46.941Z,99646.47
2022-08-17T11:42:34.702Z,99635.97
2022-08-17T11:45:32.566Z,99637.09
2022-08-17T11:48:31.031Z,99639.75
2022-08-17T11:51:25.062Z,99632.34
2022-08-17T11:54:32.293Z,99639.91
2022-08-17T11:57:02.263Z,99641.97
2022-08-17T11:59:59.615Z,99640.44
2022-08-17T12:02:48.066Z,99644.53
2022-08-17T12:05:32.879Z,99638.50
2022-08-17T12:08:09.026Z,99637.69
2022-08-17T12:10:48.877Z,99640.88
2022-08-17T12:13:19.132Z,99640.16
2022-08-17T12:15:50.394Z,99641.44
2022-08-17T12:18:22.949Z,99626.81
2022-08-17T12:21:15.444Z,99623.72
2022-08-17T12:23:56.025Z,99617.81
2022-08-17T12:26:27.393Z,99614.72
2022-08-17T12:29:01.143Z,99619.09
2022-08-17T12:31:34.609Z,99624.47
2022-08-17T12:34:03.969Z,99625.63
2022-08-17T12:36:34.539Z,99611.16
2022-08-17T12:39:13.847Z,99618.50
2022-08-17T12:41:45.869Z,99619.94
2022-08-17T12:44:17.791Z,99602.25
2022-08-17T12:46:55.979Z,99614.09
2022-08-17T12:49:30.572Z,99610.41
2022-08-17T12:52:14.482Z,99613.78
2022-08-17T12:54:48.317Z,99608.81
2022-08-17T12:57:19.891Z,99602.44
2022-08-17T12:59:54.295Z,99608.00
2022-08-17T13:02:29.716Z,99605.94
2022-08-17T13:04:59.693Z,99608.06
2022-08-17T13:07:32.689Z,99598.16
2022-08-17T13:10:00.663Z,99596.53
2022-08-17T13:12:31.161Z,99583.94
2022-08-17T13:14:59.792Z,99580.00
2022-08-17T13:17:31.246Z,99574.66
2022-08-17T13:19:59.697Z,99581.16
2022-08-17T13:22:30.536Z,99586.03
2022-08-17T13:25:03.588Z,99588.78
2022-08-17T13:27:32.807Z,99581.81
2022-08-17T13:30:03.362Z,99565.34
2022-08-17T13:32:40.435Z,99563.13
2022-08-17T13:35:50.259Z,99554.53
2022-08-17T13:38:40.457Z,99550.69
2022-08-17T13:41:08.826Z,99552.13
2022-08-17T13:43:44.537Z,99555.50
2022-08-17T13:46:21.024Z,99544.28
2022-08-17T13:48:59.847Z,99540.72
2022-08-17T13:51:34.223Z,99539.69
2022-08-17T13:54:21.653Z,99541.91
2022-08-17T13:56:58.628Z,99536.88
2022-08-17T13:59:52.694Z,99535.09
2022-08-17T14:02:20.915Z,99532.63
2022-08-17T14:04:50.214Z,99538.38
2022-08-17T14:07:33.719Z,99548.47
2022-08-17T14:10:08.728Z,99548.38
2022-08-17T14:12:39.084Z,99529.56
2022-08-17T14:15:08.694Z,99530.16
2022-08-17T14:17:38.853Z,99527.59
2022-08-17T14:20:09.477Z,99512.88
2022-08-17T14:22:39.837Z,99512.50
2022-08-17T14:25:12.182Z,99510.28
2022-08-17T14:27:41.801Z,99511.47
2022-08-17T14:30:23.339Z,99508.50
2022-08-17T14:32:51.973Z,99515.84
2022-08-17T14:35:22.214Z,99506.78
2022-08-17T14:37:50.615Z,99496.03
2022-08-17T14:40:26.783Z,99498.22
2022-08-17T14:42:56.241Z,99498.84
2022-08-17T14:45:29.881Z,99483.28
2022-08-17T14:48:01.161Z,99482.38
2022-08-17T14:50:28.829Z,99491.16
2022-08-17T14:52:57.874Z,99486.75
2022-08-17T14:55:27.551Z,99479.88
2022-08-17T14:57:55.225Z,99480.34
2022-08-17T15:00:23.578Z,99487.94
2022-08-17T15:02:53.686Z,99485.56
2022-08-17T15:05:22.749Z,99477.16
2022-08-17T15:07:50.506Z,99485.69
2022-08-17T15:10:18.521Z,99478.03
2022-08-17T15:12:47.564Z,99493.78
2022-08-17T15:15:17.548Z,99485.19
2022-08-17T15:17:54.781Z,99477.28
2022-08-17T15:20:25.017Z,99483.47
2022-08-17T15:22:55.100Z,99467.00
2022-08-17T15:25:23.532Z,99480.13
2022-08-17T15:27:52.781Z,99487.38
2022-08-17T15:30:21.561Z,99478.09
2022-08-17T15:32:51.132Z,99475.38
2022-08-17T15:35:26.870Z,99484.69
2022-08-17T15:37:56.897Z,99478.03
2022-08-17T15:40:25.010Z,99478.16
2022-08-17T15:42:53.969Z,99474.13
2022-08-17T15:45:26.317Z,99471.16
2022-08-17T15:47:54.119Z,99473.38
2022-08-17T15:50:22.130Z,99471.31
2022-08-17T15:52:55.779Z,99474.41
2022-08-17T15:55:24.378Z,99469.81
2022-08-17T15:57:53.071Z,99470.66
2022-08-17T16:00:24.120Z,99466.53
2022-08-17T16:03:45.965Z,99464.44
2022-08-17T16:05:41.098Z,99459.25
2022-08-17T16:08:10.848Z,99458.97
2022-08-17T16:10:38.512Z,99451.66
2022-08-17T16:13:06.228Z,99459.91
2022-08-17T16:15:56.696Z,99460.28
2022-08-17T16:18:26.532Z,99457.50
2022-08-17T16:20:54.908Z,99458.94
2022-08-17T16:23:22.643Z,99455.16
2022-08-17T16:25:53.559Z,99454.38
2022-08-17T16:28:21.818Z,99456.09
2022-08-17T16:30:50.789Z,99460.72
2022-08-17T16:33:18.566Z,99449.75
2022-08-17T16:35:46.245Z,99443.25
2022-08-17T16:38:13.978Z,99445.59
2022-08-17T16:40:42.409Z,99454.72
2022-08-17T16:43:11.913Z,99448.44
2022-08-17T16:45:40.655Z,99444.69
2022-08-17T16:48:11.801Z,99448.81
2022-08-17T16:50:40.256Z,99461.00
2022-08-17T16:53:10.470Z,99449.19
2022-08-17T16:55:39.239Z,99459.78
2022-08-17T16:58:08.808Z,99452.34
2022-08-17T17:00:37.378Z,99451.53
2022-08-17T17:03:19.432Z,99460.34
2022-08-17T17:05:58.395Z,99450.81
2022-08-17T17:08:31.285Z,99458.34
2022-08-17T17:11:04.094Z,99454.44
2022-08-17T17:13:44.439Z,99461.09
2022-08-17T17:16:21.576Z,99452.72
2022-08-17T17:19:04.411Z,99453.53
2022-08-17T17:21:40.295Z,99448.78
2022-08-17T17:24:12.595Z,99441.16
2022-08-17T17:26:52.418Z,99440.53
2022-08-17T17:29:35.796Z,99428.88
2022-08-17T17:32:22.426Z,99437.16
2022-08-17T17:34:58.728Z,99434.31
2022-08-17T17:37:33.065Z,99431.41
2022-08-17T17:40:06.054Z,99428.66
2022-08-17T17:42:33.916Z,99429.16
2022-08-17T17:45:07.836Z,99437.41
2022-08-17T17:47:37.315Z,99432.25
2022-08-17T17:50:08.049Z,99427.56
2022-08-17T17:52:47.404Z,99427.75
2022-08-17T17:55:26.217Z,99436.81
2022-08-17T17:58:03.616Z,99440.25
2022-08-17T18:00:38.823Z,99433.41
2022-08-17T18:03:21.954Z,99438.41
2022-08-17T18:06:04.920Z,99435.50
2022-08-17T18:08:48.947Z,99430.16
2022-08-17T18:11:45.189Z,99437.28
2022-08-17T18:14:27.290Z,99434.38
2022-08-17T18:16:58.952Z,99439.53
2022-08-17T18:19:28.713Z,99437.38
2022-08-17T18:22:07.084Z,99439.91
2022-08-17T18:24:38.609Z,99434.38
2022-08-17T18:27:20.611Z,99432.38
2022-08-17T18:29:49.397Z,99439.28
2022-08-17T18:32:28.756Z,99436.00
2022-08-17T18:34:59.290Z,99436.56
2022-08-17T18:37:44.999Z,99439.25
2022-08-17T18:40:35.089Z,99436.97
2022-08-17T18:43:07.952Z,99446.44
2022-08-17T18:45:40.757Z,99454.03
2022-08-17T18:48:28.173Z,99458.00
2022-08-17T18:50:58.719Z,99460.69
2022-08-17T18:53:38.634Z,99472.41
2022-08-17T18:56:30.568Z,99481.72
2022-08-17T18:59:23.565Z,99474.50
2022-08-17T19:02:32.447Z,99480.09
2022-08-17T19:05:13.198Z,99485.72
2022-08-17T19:07:43.454Z,99494.06
2022-08-17T19:10:25.089Z,99499.69
2022-08-17T19:13:00.708Z,99492.34
2022-08-17T19:15:39.488Z,99493.59
2022-08-17T19:18:15.972Z,99497.84
2022-08-17T19:20:48.565Z,99500.91
2022-08-17T19:23:22.096Z,99503.97
2022-08-17T19:25:53.953Z,99506.19
2022-08-17T19:28:25.761Z,99508.22
2022-08-17T19:30:58.345Z,99516.84
2022-08-17T19:33:27.407Z,99503.25
2022-08-17T19:36:02.179Z,99502.94
2022-08-17T19:38:48.154Z,99512.81
2022-08-17T19:41:24.281Z,99513.13
2022-08-17T19:44:03.509Z,99529.34
2022-08-17T19:46:43.078Z,99529.44
2022-08-17T19:49:34.470Z,99537.78
2022-08-17T19:52:28.830Z,99534.59
2022-08-17T19:55:03.488Z,99524.84
2022-08-17T19:57:44.956Z,99533.66
2022-08-17T20:00:16.952Z,99528.69
2022-08-17T20:02:55.210Z,99525.75
2022-08-17T20:05:28.041Z,99527.19
2022-08-17T20:07:58.962Z,99528.50
2022-08-17T20:10:48.084Z,99525.75
2022-08-17T20:13:33.515Z,99529.50
2022-08-17T20:16:02.221Z,99530.94
2022-08-17T20:18:50.425Z,99527.47
2022-08-17T20:21:20.902Z,99530.81
2022-08-17T20:23:54.210Z,99524.19
2022-08-17T20:26:26.317Z,99518.81
2022-08-17T20:29:36.795Z,99530.16
2022-08-17T20:32:16.081Z,99528.34
2022-08-17T20:34:47.447Z,99527.31
2022-08-17T20:37:31.819Z,99522.72
2022-08-17T20:40:24.117Z,99518.16
2022-08-17T20:42:51.732Z,99523.41
2022-08-17T20:45:54.990Z,99513.31
2022-08-17T20:48:37.951Z,99511.47
2022-08-17T20:51:20.125Z,99510.75
2022-08-17T20:54:23.349Z,99507.56
2022-08-17T20:56:56.230Z,99511.72
2022-08-17T21:00:13.722Z,99512.38
2022-08-17T21:02:44.575Z,99515.19
2022-08-17T21:05:34.532Z,99516.84
2022-08-17T21:08:14.108Z,99516.91
2022-08-17T21:10:46.927Z,99522.59
2022-08-17T21:14:01.756Z,99529.13
2022-08-17T21:16:38.670Z,99530.28
2022-08-17T21:19:22.561Z,99533.94
2022-08-17T21:22:01.177Z,99544.91
2022-08-17T21:24:41.431Z,99543.94
2022-08-17T21:27:23.442Z,99548.75
2022-08-17T21:30:14.543Z,99549.13
2022-08-17T21:32:45.891Z,99553.28
2022-08-17T21:35:31.070Z,99546.75
2022-08-17T21:38:04.885Z,99549.72
2022-08-17T21:40:34.800Z,99557.94
2022-08-17T21:43:16.884Z,99547.56
2022-08-17T21:45:54.385Z,99550.09
2022-08-17T21:48:23.880Z,99561.13
2022-08-17T21:51:02.229Z,99557.63
2022-08-17T21:53:37.461Z,99566.22
2022-08-17T21:56:06.087Z,99568.19
2022-08-17T21:58:36.689Z,99569.91
2022-08-17T22:01:14.575Z,99575.13
2022-08-17T22:03:42.851Z,99576.19
2022-08-17T22:06:24.017Z,99578.38
2022-08-17T22:09:04.384Z,99578.38
2022-08-17T22:11:32.466Z,99580.06
2022-08-17T22:14:05.106Z,99583.91
2022-08-17T22:16:33.796Z,99579.75
2022-08-17T22:19:01.595Z,99581.44
2022-08-17T22:21:30.554Z,99582.50
2022-08-17T22:24:05.008Z,99589.50
2022-08-17T22:27:00.223Z,99587.38
2022-08-17T22:29:57.406Z,99595.31
2022-08-17T22:32:41.924Z,99598.44
2022-08-17T22:35:35.468Z,99596.81
2022-08-17T22:38:28.664Z,99608.66
2022-08-17T22:41:13.496Z,99608.97
2022-08-17T22:43:43.672Z,99603.31
2022-08-17T22:46:14.878Z,99606.63
2022-08-17T22:48:50.076Z,99609.00
2022-08-17T22:51:21.612Z,99612.03
2022-08-17T22:54:11.506Z,99605.31
2022-08-17T22:57:04.388Z,99611.66
2022-08-17T22:59:44.261Z,99612.56
2022-08-17T23:02:32.864Z,99617.25
2022-08-17T23:05:21.838Z,99616.22
2022-08-17T23:07:52.874Z,99620.94
2022-08-17T23:10:22.028Z,99621.25
2022-08-17T23:12:49.658Z,99629.22
2022-08-17T23:15:19.110Z,99632.50
2022-08-17T23:17:47.676Z,99638.25
2022-08-17T23:20:17.429Z,99636.59
2022-08-17T23:22:52.026Z,99643.47
2022-08-17T23:25:27.935Z,99634.47
2022-08-17T23:27:57.463Z,99638.47
2022-08-17T23:30:28.374Z,99642.31
2022-08-17T23:32:56.915Z,99642.81
2022-08-17T23:35:39.011Z,99636.31
2022-08-17T23:38:08.874Z,99636.84
2022-08-17T23:40:39.768Z,99636.03
2022-08-17T23:43:23.720Z,99629.75
2022-08-17T23:45:52.754Z,99633.31
2022-08-17T23:48:28.533Z,99634.19
2022-08-17T23:51:05.742Z,99630.41
2022-08-17T23:53:36.194Z,99640.53
2022-08-17T23:56:10.493Z,99641.06
2022-08-17T23:58:39.352Z,99627.38
